createdAt,value
2023-04-05T00:00:18.629Z,4.74
2023-04-05T00:01:18.607Z,4.78
2023-04-05T00:02:18.683Z,4.74
2023-04-05T00:03:18.703Z,4.84
2023-04-05T00:04:18.612Z,4.75
2023-04-05T00:05:18.558Z,4.68
2023-04-05T00:06:18.544Z,4.75
2023-04-05T00:07:18.545Z,4.74
2023-04-05T00:08:18.546Z,4.77
2023-04-05T00:09:18.532Z,4.77
2023-04-05T00:10:18.516Z,4.74
2023-04-05T00:11:18.505Z,4.73
2023-04-05T00:12:18.499Z,4.74
2023-04-05T00:13:18.492Z,4.73
2023-04-05T00:14:18.484Z,4.71
2023-04-05T00:15:18.499Z,4.74
2023-04-05T00:16:18.519Z,4.68
2023-04-05T00:17:18.477Z,4.68
2023-04-05T00:18:18.448Z,4.59
2023-04-05T00:19:18.441Z,4.60
2023-04-05T00:20:18.482Z,4.67
2023-04-05T00:21:18.455Z,4.71
2023-04-05T00:22:18.433Z,4.75
2023-04-05T00:23:18.416Z,4.63
2023-04-05T00:24:18.412Z,4.66
2023-04-05T00:25:18.413Z,4.59
2023-04-05T00:26:18.383Z,4.60
2023-04-05T00:27:18.388Z,4.59
2023-04-05T00:28:18.373Z,4.55
2023-04-05T00:29:18.373Z,4.55
2023-04-05T00:30:18.356Z,4.59
2023-04-05T00:31:18.355Z,4.63
2023-04-05T00:32:18.403Z,4.52
2023-04-05T00:33:18.355Z,4.67
2023-04-05T00:34:18.330Z,4.60
2023-04-05T00:35:18.316Z,4.63
2023-04-05T00:36:18.303Z,4.53
2023-04-05T00:37:18.302Z,4.58
2023-04-05T00:38:18.294Z,4.55
2023-04-05T00:39:18.321Z,4.55
2023-04-05T00:40:18.272Z,4.50
2023-04-05T00:41:18.276Z,4.52
2023-04-05T00:42:18.269Z,4.50
2023-04-05T00:43:18.275Z,4.55
2023-04-05T00:44:18.243Z,4.52
2023-04-05T00:45:18.237Z,4.58
2023-04-05T00:46:18.283Z,4.55
2023-04-05T00:47:18.214Z,4.52
2023-04-05T00:48:18.209Z,4.58
2023-04-05T00:49:18.216Z,4.52
2023-04-05T00:50:18.190Z,4.56
2023-04-05T00:51:18.195Z,4.48
2023-04-05T00:52:18.181Z,4.58
2023-04-05T00:53:18.210Z,4.52
2023-04-05T00:54:18.161Z,4.56
2023-04-05T00:55:18.159Z,4.41
2023-04-05T00:56:18.161Z,4.41
2023-04-05T00:57:18.152Z,4.45
2023-04-05T00:58:18.132Z,4.41
2023-04-05T00:59:18.142Z,4.44
2023-04-05T01:00:18.108Z,4.41
2023-04-05T01:01:18.213Z,4.48
2023-04-05T01:02:18.100Z,4.42
2023-04-05T01:03:18.082Z,4.50
2023-04-05T01:04:18.143Z,4.48
2023-04-05T01:05:18.067Z,4.48
2023-04-05T01:06:18.055Z,4.45
2023-04-05T01:07:18.062Z,4.48
2023-04-05T01:08:18.050Z,4.45
2023-04-05T01:09:18.037Z,4.52
2023-04-05T01:10:18.033Z,4.44
2023-04-05T01:11:18.023Z,4.40
2023-04-05T01:12:18.018Z,4.31
2023-04-05T01:13:18.002Z,4.44
2023-04-05T01:14:17.998Z,4.48
2023-04-05T01:15:17.984Z,4.41
2023-04-05T01:16:18.178Z,4.40
2023-04-05T01:17:17.981Z,4.41
2023-04-05T01:18:17.954Z,4.45
2023-04-05T01:19:17.955Z,4.44
2023-04-05T01:20:17.956Z,4.41
2023-04-05T01:21:17.946Z,4.41
2023-04-05T01:22:17.934Z,4.31
2023-04-05T01:23:17.925Z,4.37
2023-04-05T01:24:17.913Z,4.34
2023-04-05T01:25:17.901Z,4.38
2023-04-05T01:26:17.897Z,4.35
2023-04-05T01:27:17.888Z,4.24
2023-04-05T01:28:17.877Z,4.32
2023-04-05T01:29:17.866Z,4.34
2023-04-05T01:30:17.859Z,4.32
2023-04-05T01:31:17.885Z,4.34
2023-04-05T01:32:17.845Z,4.28
2023-04-05T01:33:17.836Z,4.30
2023-04-05T01:34:17.847Z,4.30
2023-04-05T01:35:17.826Z,4.31
2023-04-05T01:36:17.843Z,4.37
2023-04-05T01:37:17.801Z,4.35
2023-04-05T01:38:17.819Z,4.41
2023-04-05T01:39:17.786Z,4.35
2023-04-05T01:40:17.781Z,4.32
2023-04-05T01:41:17.850Z,4.35
2023-04-05T01:42:17.789Z,4.35
2023-04-05T01:43:17.761Z,4.24
2023-04-05T01:44:17.748Z,4.26
2023-04-05T01:45:17.740Z,4.24
2023-04-05T01:46:17.757Z,4.26
2023-04-05T01:47:17.739Z,4.26
2023-04-05T01:48:17.861Z,4.26
2023-04-05T01:49:17.707Z,4.22
2023-04-05T01:50:17.702Z,4.16
2023-04-05T01:51:17.689Z,4.24
2023-04-05T01:52:17.685Z,4.19
2023-04-05T01:53:17.677Z,4.19
2023-04-05T01:54:17.677Z,4.17
2023-04-05T01:55:17.665Z,4.20
2023-04-05T01:56:17.657Z,4.14
2023-04-05T01:57:17.651Z,4.17
2023-04-05T01:58:17.651Z,4.17
2023-04-05T01:59:17.694Z,4.05
2023-04-05T02:00:17.632Z,4.13
2023-04-05T02:01:17.662Z,4.06
2023-04-05T02:02:17.611Z,4.05
2023-04-05T02:03:17.740Z,4.05
2023-04-05T02:04:17.593Z,4.08
2023-04-05T02:05:17.590Z,4.10
2023-04-05T02:06:17.624Z,4.01
2023-04-05T02:07:17.574Z,4.02
2023-04-05T02:08:17.557Z,4.06
2023-04-05T02:09:17.554Z,4.02
2023-04-05T02:10:17.544Z,3.99
2023-04-05T02:11:17.531Z,3.98
2023-04-05T02:12:17.543Z,3.98
2023-04-05T02:13:17.524Z,4.10
2023-04-05T02:14:17.505Z,4.06
2023-04-05T02:15:17.492Z,4.04
2023-04-05T02:16:17.520Z,4.02
2023-04-05T02:17:17.494Z,4.13
2023-04-05T02:18:17.480Z,4.16
2023-04-05T02:19:17.464Z,4.12
2023-04-05T02:20:17.457Z,4.08
2023-04-05T02:21:17.445Z,4.10
2023-04-05T02:22:17.444Z,4.08
2023-04-05T02:23:17.447Z,4.13
2023-04-05T02:24:17.427Z,4.05
2023-04-05T02:25:17.413Z,4.16
2023-04-05T02:26:17.408Z,4.05
2023-04-05T02:27:17.397Z,4.05
2023-04-05T02:28:17.413Z,4.12
2023-04-05T02:29:17.387Z,4.12
2023-04-05T02:30:17.384Z,4.05
2023-04-05T02:31:17.377Z,4.06
2023-04-05T02:32:17.353Z,4.13
2023-04-05T02:33:17.365Z,4.13
2023-04-05T02:34:17.386Z,4.10
2023-04-05T02:35:17.396Z,4.12
2023-04-05T02:36:17.331Z,4.04
2023-04-05T02:37:17.330Z,4.13
2023-04-05T02:38:17.311Z,4.05
2023-04-05T02:39:17.306Z,4.06
2023-04-05T02:40:17.303Z,4.08
2023-04-05T02:41:17.279Z,4.06
2023-04-05T02:42:17.276Z,4.08
2023-04-05T02:43:17.404Z,4.08
2023-04-05T02:44:17.271Z,4.13
2023-04-05T02:45:17.319Z,4.16
2023-04-05T02:46:17.293Z,4.12
2023-04-05T02:47:17.254Z,4.06
2023-04-05T02:48:17.341Z,4.14
2023-04-05T02:49:17.216Z,4.08
2023-04-05T02:50:17.206Z,4.06
2023-04-05T02:51:17.214Z,4.13
2023-04-05T02:52:17.204Z,4.06
2023-04-05T02:53:17.318Z,4.06
2023-04-05T02:54:17.178Z,4.08
2023-04-05T02:55:17.167Z,4.08
2023-04-05T02:56:17.174Z,4.10
2023-04-05T02:57:17.149Z,4.22
2023-04-05T02:58:17.135Z,4.19
2023-04-05T02:59:17.133Z,4.20
2023-04-05T03:00:17.119Z,4.20
2023-04-05T03:01:17.198Z,4.19
2023-04-05T03:02:17.103Z,4.19
2023-04-05T03:03:17.136Z,4.19
2023-04-05T03:04:17.094Z,4.19
2023-04-05T03:05:17.076Z,4.22
2023-04-05T03:06:17.068Z,4.22
2023-04-05T03:07:17.067Z,4.23
2023-04-05T03:08:17.059Z,4.24
2023-04-05T03:09:17.042Z,4.23
2023-04-05T03:10:17.054Z,4.23
2023-04-05T03:11:17.028Z,4.23
2023-04-05T03:12:17.027Z,4.26
2023-04-05T03:13:17.012Z,4.31
2023-04-05T03:14:17.015Z,4.30
2023-04-05T03:15:17.012Z,4.20
2023-04-05T03:16:16.995Z,4.26
2023-04-05T03:17:16.977Z,4.32
2023-04-05T03:18:16.977Z,4.22
2023-04-05T03:19:16.958Z,4.35
2023-04-05T03:20:16.962Z,4.35
2023-04-05T03:21:16.963Z,4.30
2023-04-05T03:22:16.961Z,4.26
2023-04-05T03:23:16.958Z,4.31
2023-04-05T03:24:16.920Z,4.31
2023-04-05T03:25:16.909Z,4.37
2023-04-05T03:26:16.898Z,4.28
2023-04-05T03:27:16.901Z,4.22
2023-04-05T03:28:16.880Z,4.34
2023-04-05T03:29:16.877Z,4.20
2023-04-05T03:30:16.895Z,4.24
2023-04-05T03:31:18.344Z,4.24
2023-04-05T03:32:16.853Z,4.22
2023-04-05T03:33:16.840Z,4.22
2023-04-05T03:34:16.838Z,4.23
2023-04-05T03:35:16.966Z,4.35
2023-04-05T03:36:16.942Z,4.31
2023-04-05T03:37:16.809Z,4.34
2023-04-05T03:38:16.799Z,4.31
2023-04-05T03:39:16.789Z,4.48
2023-04-05T03:40:16.791Z,4.31
2023-04-05T03:41:16.777Z,4.45
2023-04-05T03:42:16.772Z,4.38
2023-04-05T03:43:16.783Z,4.35
2023-04-05T03:44:16.788Z,4.35
2023-04-05T03:45:19.864Z,4.40
2023-04-05T03:46:16.824Z,4.42
2023-04-05T03:47:16.732Z,4.42
2023-04-05T03:48:16.716Z,4.42
2023-04-05T03:49:16.708Z,4.40
2023-04-05T03:50:16.703Z,4.42
2023-04-05T03:51:16.697Z,4.40
2023-04-05T03:52:16.687Z,4.38
2023-04-05T03:53:16.673Z,4.42
2023-04-05T03:54:16.664Z,4.41
2023-04-05T03:55:16.657Z,4.37
2023-04-05T03:56:16.661Z,4.38
2023-04-05T03:57:16.654Z,4.42
2023-04-05T03:58:16.632Z,4.35
2023-04-05T03:59:16.669Z,4.30
2023-04-05T04:00:16.627Z,4.32
2023-04-05T04:01:16.616Z,4.31
2023-04-05T04:02:16.640Z,4.42
2023-04-05T04:03:16.598Z,4.37
2023-04-05T04:04:16.599Z,4.32
2023-04-05T04:05:16.640Z,4.38
2023-04-05T04:06:19.205Z,4.34
2023-04-05T04:07:16.553Z,4.31
2023-04-05T04:08:16.554Z,4.37
2023-04-05T04:09:16.551Z,4.31
2023-04-05T04:10:16.527Z,4.41
2023-04-05T04:11:16.527Z,4.26
2023-04-05T04:12:16.534Z,4.35
2023-04-05T04:13:16.526Z,4.35
2023-04-05T04:14:16.584Z,4.35
2023-04-05T04:15:16.494Z,4.38
2023-04-05T04:16:16.526Z,4.35
2023-04-05T04:17:16.467Z,4.41
2023-04-05T04:18:16.622Z,4.45
2023-04-05T04:19:16.453Z,4.34
2023-04-05T04:20:16.449Z,4.38
2023-04-05T04:21:16.445Z,4.44
2023-04-05T04:22:16.442Z,4.45
2023-04-05T04:23:16.417Z,4.40
2023-04-05T04:24:16.452Z,4.45
2023-04-05T04:25:16.421Z,4.38
2023-04-05T04:26:16.425Z,4.40
2023-04-05T04:27:16.383Z,4.42
2023-04-05T04:28:16.379Z,4.44
2023-04-05T04:29:16.374Z,4.35
2023-04-05T04:30:16.393Z,4.44
2023-04-05T04:31:16.385Z,4.42
2023-04-05T04:32:16.351Z,4.48
2023-04-05T04:33:16.371Z,4.42
2023-04-05T04:34:16.335Z,4.42
2023-04-05T04:35:16.348Z,4.40
2023-04-05T04:36:16.322Z,4.50
2023-04-05T04:37:16.315Z,4.48
2023-04-05T04:38:16.301Z,4.41
2023-04-05T04:39:16.291Z,4.45
2023-04-05T04:40:16.282Z,4.40
2023-04-05T04:41:16.267Z,4.48
2023-04-05T04:42:16.268Z,4.49
2023-04-05T04:43:16.284Z,4.50
2023-04-05T04:44:16.258Z,4.55
2023-04-05T04:45:16.237Z,4.55
2023-04-05T04:46:16.343Z,4.58
2023-04-05T04:47:16.229Z,4.50
2023-04-05T04:48:16.216Z,4.50
2023-04-05T04:49:16.208Z,4.56
2023-04-05T04:50:16.270Z,4.52
2023-04-05T04:51:16.202Z,4.55
2023-04-05T04:52:16.203Z,4.50
2023-04-05T04:53:16.176Z,4.49
2023-04-05T04:54:16.163Z,4.58
2023-04-05T04:55:16.162Z,4.68
2023-04-05T04:56:16.152Z,4.63
2023-04-05T04:57:16.178Z,4.67
2023-04-05T04:58:16.140Z,4.67
2023-04-05T04:59:16.224Z,4.68
2023-04-05T05:00:16.171Z,4.59
2023-04-05T05:01:16.178Z,4.74
2023-04-05T05:02:16.097Z,4.74
2023-04-05T05:03:16.103Z,4.71
2023-04-05T05:04:16.231Z,4.87
2023-04-05T05:05:16.098Z,4.93
2023-04-05T05:06:16.091Z,4.94
2023-04-05T05:07:16.067Z,4.94
2023-04-05T05:08:16.646Z,4.93
2023-04-05T05:09:16.060Z,5.04
2023-04-05T05:10:16.063Z,5.00
2023-04-05T05:11:16.051Z,5.08
2023-04-05T05:12:16.058Z,5.04
2023-04-05T05:13:16.030Z,5.17
2023-04-05T05:14:16.009Z,5.28
2023-04-05T05:15:16.004Z,5.18
2023-04-05T05:16:16.045Z,5.25
2023-04-05T05:17:15.993Z,5.23
2023-04-05T05:18:15.999Z,5.21
2023-04-05T05:19:15.989Z,5.30
2023-04-05T05:20:15.970Z,5.30
2023-04-05T05:21:15.960Z,5.33
2023-04-05T05:22:15.987Z,5.36
2023-04-05T05:23:16.018Z,5.44
2023-04-05T05:24:15.952Z,5.36
2023-04-05T05:25:15.939Z,5.35
2023-04-05T05:26:15.924Z,5.36
2023-04-05T05:27:15.944Z,5.33
2023-04-05T05:28:15.897Z,5.41
2023-04-05T05:29:15.904Z,5.36
2023-04-05T05:30:15.888Z,5.39
2023-04-05T05:31:15.960Z,5.47
2023-04-05T05:32:15.891Z,5.46
2023-04-05T05:33:16.043Z,5.39
2023-04-05T05:34:15.931Z,5.43
2023-04-05T05:35:15.869Z,5.43
2023-04-05T05:36:15.864Z,5.46
2023-04-05T05:37:15.871Z,5.36
2023-04-05T05:38:15.827Z,5.33
2023-04-05T05:39:15.817Z,5.46
2023-04-05T05:40:15.823Z,5.41
2023-04-05T05:41:15.804Z,5.47
2023-04-05T05:42:15.820Z,5.43
2023-04-05T05:43:15.799Z,5.41
2023-04-05T05:44:15.765Z,5.38
2023-04-05T05:45:15.768Z,5.36
2023-04-05T05:46:15.823Z,5.39
2023-04-05T05:47:15.768Z,5.36
2023-04-05T05:48:15.772Z,5.38
2023-04-05T05:49:15.741Z,5.51
2023-04-05T05:50:15.760Z,5.46
2023-04-05T05:51:15.757Z,5.43
2023-04-05T05:52:15.737Z,5.50
2023-04-05T05:53:15.707Z,5.48
2023-04-05T05:54:15.769Z,5.53
2023-04-05T05:55:15.721Z,5.53
2023-04-05T05:56:15.681Z,5.51
2023-04-05T05:57:15.683Z,5.50
2023-04-05T05:58:15.668Z,5.54
2023-04-05T05:59:15.749Z,5.48
2023-04-05T06:00:15.681Z,5.48
2023-04-05T06:01:15.655Z,5.54
2023-04-05T06:02:15.667Z,5.59
2023-04-05T06:03:15.777Z,5.65
2023-04-05T06:04:15.708Z,5.65
2023-04-05T06:05:15.747Z,5.68
2023-04-05T06:06:15.609Z,5.62
2023-04-05T06:07:15.664Z,5.61
2023-04-05T06:08:15.612Z,5.65
2023-04-05T06:09:15.683Z,5.68
2023-04-05T06:10:15.578Z,5.69
2023-04-05T06:11:15.582Z,5.69
2023-04-05T06:12:15.578Z,5.69
2023-04-05T06:13:15.626Z,5.71
2023-04-05T06:14:15.551Z,5.73
2023-04-05T06:15:15.557Z,5.66
2023-04-05T06:16:15.705Z,5.69
2023-04-05T06:17:15.554Z,5.75
2023-04-05T06:18:15.535Z,5.76
2023-04-05T06:19:15.516Z,5.76
2023-04-05T06:20:15.522Z,5.79
2023-04-05T06:21:15.506Z,5.87
2023-04-05T06:22:15.508Z,5.82
2023-04-05T06:23:15.500Z,5.90
2023-04-05T06:24:15.501Z,5.94
2023-04-05T06:25:17.715Z,5.98
2023-04-05T06:26:15.526Z,6.05
2023-04-05T06:27:15.497Z,6.08
2023-04-05T06:28:15.477Z,6.11
2023-04-05T06:29:15.449Z,6.14
2023-04-05T06:30:15.462Z,6.09
2023-04-05T06:31:15.452Z,6.19
2023-04-05T06:32:15.446Z,6.20
2023-04-05T06:33:15.431Z,6.16
2023-04-05T06:34:15.437Z,6.09
2023-04-05T06:35:15.416Z,6.17
2023-04-05T06:36:15.397Z,6.16
2023-04-05T06:37:15.416Z,6.09
2023-04-05T06:38:15.401Z,6.26
2023-04-05T06:39:15.392Z,6.30
2023-04-05T06:40:15.420Z,6.33
2023-04-05T06:41:15.427Z,6.31
2023-04-05T06:42:15.443Z,6.44
2023-04-05T06:43:15.481Z,6.44
2023-04-05T06:44:15.362Z,6.38
2023-04-05T06:45:15.358Z,6.38
2023-04-05T06:46:15.398Z,6.44
2023-04-05T06:47:15.410Z,6.48
2023-04-05T06:48:15.358Z,6.51
2023-04-05T06:49:15.348Z,6.46
2023-04-05T06:50:15.336Z,6.48
2023-04-05T06:51:15.399Z,6.46
2023-04-05T06:52:15.533Z,6.42
2023-04-05T06:53:15.344Z,6.41
2023-04-05T06:54:15.342Z,6.45
2023-04-05T06:55:15.354Z,6.42
2023-04-05T06:56:15.302Z,6.42
2023-04-05T06:57:15.308Z,6.44
2023-04-05T06:58:15.343Z,6.36
2023-04-05T06:59:15.315Z,6.46
2023-04-05T07:00:15.270Z,6.42
2023-04-05T07:01:15.372Z,6.45
2023-04-05T07:02:15.270Z,6.48
2023-04-05T07:03:15.385Z,6.49
2023-04-05T07:04:15.296Z,6.59
2023-04-05T07:05:15.274Z,6.42
2023-04-05T07:06:15.262Z,6.56
2023-04-05T07:07:15.264Z,6.57
2023-04-05T07:08:15.235Z,6.62
2023-04-05T07:09:15.267Z,6.57
2023-04-05T07:10:15.269Z,6.56
2023-04-05T07:11:15.230Z,6.63
2023-04-05T07:12:15.216Z,6.60
2023-04-05T07:13:15.236Z,6.54
2023-04-05T07:14:15.218Z,6.56
2023-04-05T07:15:15.330Z,6.46
2023-04-05T07:16:15.282Z,6.49
2023-04-05T07:17:15.189Z,6.46
2023-04-05T07:18:15.221Z,6.51
2023-04-05T07:19:15.257Z,6.52
2023-04-05T07:20:15.169Z,6.49
2023-04-05T07:21:15.179Z,6.42
2023-04-05T07:22:15.161Z,6.48
2023-04-05T07:23:15.171Z,6.56
2023-04-05T07:24:15.185Z,6.64
2023-04-05T07:25:15.177Z,6.59
2023-04-05T07:26:15.146Z,6.70
2023-04-05T07:27:15.155Z,6.66
2023-04-05T07:28:15.134Z,6.78
2023-04-05T07:29:15.141Z,6.74
2023-04-05T07:30:15.144Z,6.74
2023-04-05T07:31:15.181Z,6.70
2023-04-05T07:32:15.236Z,6.78
2023-04-05T07:33:15.151Z,6.84
2023-04-05T07:34:15.098Z,6.92
2023-04-05T07:35:15.087Z,6.84
2023-04-05T07:36:15.139Z,6.87
2023-04-05T07:37:15.080Z,6.89
2023-04-05T07:38:15.085Z,6.95
2023-04-05T07:39:15.090Z,6.96
2023-04-05T07:40:15.104Z,7.05
2023-04-05T07:41:15.082Z,7.00
2023-04-05T07:42:15.102Z,7.00
2023-04-05T07:43:15.045Z,7.05
2023-04-05T07:44:15.056Z,7.05
2023-04-05T07:45:15.038Z,7.13
2023-04-05T07:46:15.091Z,7.23
2023-04-05T07:47:15.052Z,7.15
2023-04-05T07:48:15.026Z,7.20
2023-04-05T07:49:15.062Z,7.17
2023-04-05T07:50:15.195Z,7.29
2023-04-05T07:51:15.049Z,7.33
2023-04-05T07:52:14.998Z,7.36
2023-04-05T07:53:15.000Z,7.56
2023-04-05T07:54:15.005Z,7.85
2023-04-05T07:55:14.993Z,8.01
2023-04-05T07:56:14.987Z,8.38
2023-04-05T07:57:15.013Z,8.53
2023-04-05T07:58:14.980Z,8.70
2023-04-05T07:59:15.251Z,8.92
2023-04-05T08:00:15.005Z,8.92
2023-04-05T08:01:14.975Z,8.94
2023-04-05T08:02:15.199Z,8.87
2023-04-05T08:03:15.063Z,8.87
2023-04-05T08:04:15.026Z,8.87
2023-04-05T08:05:15.058Z,8.87
2023-04-05T08:06:14.988Z,9.10
2023-04-05T08:07:14.985Z,9.26
2023-04-05T08:08:15.074Z,9.54
2023-04-05T08:09:15.023Z,9.64
2023-04-05T08:10:14.978Z,9.86
2023-04-05T08:11:15.016Z,9.95
2023-04-05T08:12:14.999Z,10.15
2023-04-05T08:13:14.993Z,10.20
2023-04-05T08:14:15.005Z,10.31
2023-04-05T08:15:14.998Z,10.41
2023-04-05T08:16:15.063Z,10.53
2023-04-05T08:17:15.016Z,10.51
2023-04-05T08:18:15.019Z,10.60
2023-04-05T08:19:15.728Z,10.57
2023-04-05T08:20:15.042Z,10.71
2023-04-05T08:21:15.049Z,10.64
2023-04-05T08:22:15.053Z,10.61
2023-04-05T08:23:15.062Z,10.59
2023-04-05T08:24:15.158Z,10.71
2023-04-05T08:25:15.089Z,10.76
2023-04-05T08:26:15.122Z,10.74
2023-04-05T08:27:15.107Z,10.79
2023-04-05T08:28:15.085Z,10.75
2023-04-05T08:29:15.107Z,10.79
2023-04-05T08:30:15.120Z,10.79
2023-04-05T08:31:15.105Z,10.87
2023-04-05T08:32:15.285Z,10.87
2023-04-05T08:33:15.149Z,10.93
2023-04-05T08:34:15.137Z,10.87
2023-04-05T08:35:15.121Z,10.87
2023-04-05T08:36:15.169Z,10.90
2023-04-05T08:37:15.128Z,10.94
2023-04-05T08:38:15.132Z,10.97
2023-04-05T08:39:15.147Z,10.96
2023-04-05T08:40:15.191Z,11.02
2023-04-05T08:41:15.138Z,11.18
2023-04-05T08:42:15.141Z,11.26
2023-04-05T08:43:15.177Z,11.27
2023-04-05T08:44:15.157Z,11.43
2023-04-05T08:45:15.210Z,11.43
2023-04-05T08:46:15.165Z,11.50
2023-04-05T08:47:15.170Z,11.55
2023-04-05T08:48:15.175Z,11.66
2023-04-05T08:49:15.159Z,11.60
2023-04-05T08:50:15.164Z,11.55
2023-04-05T08:51:15.162Z,11.62
2023-04-05T08:52:15.147Z,11.59
2023-04-05T08:53:15.154Z,11.55
2023-04-05T08:54:15.197Z,11.59
2023-04-05T08:55:15.163Z,11.69
2023-04-05T08:56:15.167Z,11.65
2023-04-05T08:57:15.156Z,11.55
2023-04-05T08:58:15.173Z,11.55
2023-04-05T08:59:15.246Z,11.62
2023-04-05T09:00:15.140Z,11.60
2023-04-05T09:01:15.199Z,11.63
2023-04-05T09:02:15.191Z,11.73
2023-04-05T09:03:15.243Z,11.69
2023-04-05T09:04:15.162Z,11.72
2023-04-05T09:05:15.174Z,11.75
2023-04-05T09:06:15.156Z,11.81
2023-04-05T09:07:15.150Z,11.86
2023-04-05T09:08:15.134Z,11.84
2023-04-05T09:09:15.245Z,11.90
2023-04-05T09:10:15.156Z,11.88
2023-04-05T09:11:15.157Z,11.86
2023-04-05T09:12:15.144Z,11.78
2023-04-05T09:13:15.151Z,11.84
2023-04-05T09:14:15.145Z,11.84
2023-04-05T09:15:15.129Z,11.81
2023-04-05T09:16:15.186Z,11.78
2023-04-05T09:17:15.211Z,11.73
2023-04-05T09:18:25.443Z,11.68
2023-04-05T09:19:15.116Z,11.65
2023-04-05T09:20:15.108Z,11.51
2023-04-05T09:21:15.115Z,11.37
2023-04-05T09:22:15.139Z,11.36
2023-04-05T09:23:15.116Z,11.35
2023-04-05T09:24:15.128Z,11.27
2023-04-05T09:25:15.106Z,11.26
2023-04-05T09:26:15.136Z,11.18
2023-04-05T09:27:15.097Z,11.11
2023-04-05T09:28:15.097Z,11.15
2023-04-05T09:29:15.094Z,11.10
2023-04-05T09:30:15.081Z,11.07
2023-04-05T09:31:15.108Z,10.90
2023-04-05T09:32:15.090Z,10.84
2023-04-05T09:33:15.113Z,10.75
2023-04-05T09:34:15.076Z,10.72
2023-04-05T09:35:15.079Z,10.64
2023-04-05T09:36:15.089Z,10.71
2023-04-05T09:37:15.070Z,10.63
2023-04-05T09:38:15.100Z,10.56
2023-04-05T09:39:15.062Z,10.57
2023-04-05T09:40:15.063Z,10.69
2023-04-05T09:41:15.057Z,10.78
2023-04-05T09:42:15.058Z,10.86
2023-04-05T09:43:15.052Z,10.81
2023-04-05T09:44:15.045Z,10.82
2023-04-05T09:45:15.066Z,10.84
2023-04-05T09:46:15.150Z,10.89
2023-04-05T09:47:15.052Z,11.02
2023-04-05T09:48:15.167Z,10.93
2023-04-05T09:49:15.121Z,10.81
2023-04-05T09:50:15.097Z,10.75
2023-04-05T09:51:15.027Z,10.76
2023-04-05T09:52:15.027Z,10.67
2023-04-05T09:53:15.017Z,10.57
2023-04-05T09:54:15.055Z,10.61
2023-04-05T09:55:15.049Z,10.64
2023-04-05T09:56:15.019Z,10.61
2023-04-05T09:57:15.017Z,10.59
2023-04-05T09:58:15.026Z,10.60
2023-04-05T09:59:15.050Z,10.64
2023-04-05T10:00:14.999Z,10.59
2023-04-05T10:01:17.245Z,10.49
2023-04-05T10:02:15.028Z,10.61
2023-04-05T10:03:15.117Z,10.61
2023-04-05T10:04:15.065Z,10.56
2023-04-05T10:05:14.971Z,10.38
2023-04-05T10:06:14.976Z,10.33
2023-04-05T10:07:15.027Z,10.33
2023-04-05T10:08:14.975Z,10.19
2023-04-05T10:09:14.962Z,10.19
2023-04-05T10:10:14.970Z,10.15
2023-04-05T10:11:14.998Z,10.01
2023-04-05T10:12:14.963Z,10.04
2023-04-05T10:13:14.962Z,9.91
2023-04-05T10:14:14.964Z,9.98
2023-04-05T10:15:14.944Z,9.89
2023-04-05T10:16:15.042Z,9.97
2023-04-05T10:17:14.936Z,9.97
2023-04-05T10:18:14.989Z,9.95
2023-04-05T10:19:14.921Z,9.95
2023-04-05T10:20:14.953Z,9.94
2023-04-05T10:21:14.909Z,9.92
2023-04-05T10:22:14.914Z,9.86
2023-04-05T10:23:14.916Z,9.86
2023-04-05T10:24:14.905Z,9.79
2023-04-05T10:25:14.900Z,9.74
2023-04-05T10:26:14.962Z,9.72
2023-04-05T10:27:14.914Z,9.62
2023-04-05T10:28:14.913Z,9.62
2023-04-05T10:29:14.918Z,9.54
2023-04-05T10:30:14.927Z,9.47
2023-04-05T10:31:21.237Z,9.43
2023-04-05T10:32:14.989Z,9.37
2023-04-05T10:33:14.952Z,9.36
2023-04-05T10:34:14.917Z,9.32
2023-04-05T10:35:14.855Z,9.32
2023-04-05T10:36:14.896Z,9.25
2023-04-05T10:37:14.882Z,9.26
2023-04-05T10:38:14.856Z,9.26
2023-04-05T10:39:14.840Z,9.23
2023-04-05T10:40:14.858Z,9.19
2023-04-05T10:41:14.897Z,9.26
2023-04-05T10:42:14.832Z,9.18
2023-04-05T10:43:14.833Z,9.14
2023-04-05T10:44:25.635Z,9.22
2023-04-05T10:45:14.829Z,9.14
2023-04-05T10:46:14.845Z,9.25
2023-04-05T10:47:14.884Z,9.22
2023-04-05T10:48:14.826Z,9.23
2023-04-05T10:49:14.832Z,9.22
2023-04-05T10:50:14.804Z,9.19
2023-04-05T10:51:14.809Z,9.13
2023-04-05T10:52:14.789Z,9.11
2023-04-05T10:53:14.818Z,9.08
2023-04-05T10:54:14.790Z,9.06
2023-04-05T10:55:14.803Z,9.13
2023-04-05T10:56:14.774Z,9.08
2023-04-05T10:57:14.774Z,9.03
2023-04-05T10:58:14.803Z,9.11
2023-04-05T10:59:14.876Z,8.99
2023-04-05T11:00:14.755Z,8.92
2023-04-05T11:01:14.800Z,9.02
2023-04-05T11:02:14.760Z,8.95
2023-04-05T11:03:14.794Z,8.95
2023-04-05T11:04:14.807Z,9.11
2023-04-05T11:05:14.748Z,9.06
2023-04-05T11:06:14.736Z,9.10
2023-04-05T11:07:14.732Z,9.00
2023-04-05T11:08:14.761Z,9.00
2023-04-05T11:09:14.737Z,9.02
2023-04-05T11:10:14.710Z,8.95
2023-04-05T11:11:14.761Z,8.97
2023-04-05T11:12:14.825Z,8.91
2023-04-05T11:13:14.768Z,8.91
2023-04-05T11:14:14.706Z,8.92
2023-04-05T11:15:14.687Z,8.89
2023-04-05T11:16:14.690Z,8.94
2023-04-05T11:17:14.738Z,8.95
2023-04-05T11:18:14.692Z,8.84
2023-04-05T11:19:14.677Z,8.94
2023-04-05T11:20:14.696Z,8.99
2023-04-05T11:21:14.657Z,8.99
2023-04-05T11:22:14.674Z,8.94
2023-04-05T11:23:14.654Z,8.97
2023-04-05T11:24:14.656Z,8.99
2023-04-05T11:25:14.643Z,9.02
2023-04-05T11:26:14.672Z,8.94
2023-04-05T11:27:14.635Z,8.95
2023-04-05T11:28:14.637Z,8.99
2023-04-05T11:29:14.626Z,9.04
2023-04-05T11:30:14.631Z,8.95
2023-04-05T11:31:14.667Z,9.00
2023-04-05T11:32:14.623Z,8.92
2023-04-05T11:33:14.609Z,8.95
2023-04-05T11:34:14.615Z,8.95
2023-04-05T11:35:14.618Z,9.06
2023-04-05T11:36:14.633Z,9.03
2023-04-05T11:37:14.597Z,8.99
2023-04-05T11:38:14.606Z,8.95
2023-04-05T11:39:14.581Z,9.02
2023-04-05T11:40:14.593Z,9.13
2023-04-05T11:41:14.573Z,9.10
2023-04-05T11:42:14.577Z,9.11
2023-04-05T11:43:14.572Z,9.10
2023-04-05T11:44:14.567Z,9.10
2023-04-05T11:45:14.571Z,9.14
2023-04-05T11:46:14.595Z,9.21
2023-04-05T11:47:21.852Z,9.11
2023-04-05T11:49:18.657Z,9.10
2023-04-05T11:50:18.523Z,9.13
2023-04-05T11:52:22.530Z,9.11
2023-04-05T11:53:22.523Z,9.11
2023-04-05T11:55:26.556Z,9.10
2023-04-05T11:56:26.514Z,9.10
2023-04-05T11:58:19.445Z,9.10
2023-04-05T11:59:19.557Z,9.10
2023-04-05T12:01:23.502Z,9.08
2023-04-05T12:02:23.526Z,9.00
2023-04-05T12:04:27.468Z,8.97
2023-04-05T12:05:27.416Z,8.94
2023-04-05T12:07:33.104Z,8.94
2023-04-05T12:08:31.432Z,8.95
2023-04-05T12:10:35.416Z,8.91
2023-04-05T12:11:35.407Z,8.91
2023-04-05T12:13:40.282Z,8.91
2023-04-05T12:14:39.572Z,8.92
2023-04-05T12:16:43.675Z,8.94
2023-04-05T12:17:43.656Z,8.94
2023-04-05T12:19:47.600Z,8.92
2023-04-05T12:20:47.546Z,8.97
2023-04-05T12:22:52.099Z,8.97
2023-04-05T12:23:51.531Z,8.88
2023-04-05T12:25:55.515Z,8.94
2023-04-05T12:26:58.597Z,8.91
2023-04-05T12:29:00.033Z,8.74
2023-04-05T12:29:59.554Z,8.81
2023-04-05T12:32:03.551Z,8.76
2023-04-05T12:33:03.561Z,8.79
2023-04-05T12:35:08.758Z,8.79
2023-04-05T12:36:07.555Z,8.76
2023-04-05T12:38:00.401Z,8.67
2023-04-05T12:39:00.402Z,8.73
2023-04-05T12:41:04.427Z,8.69
2023-04-05T12:42:04.372Z,8.66
2023-04-05T12:44:08.390Z,8.63
2023-04-05T12:45:09.200Z,8.58
2023-04-05T12:47:12.502Z,8.49
2023-04-05T12:48:12.348Z,8.51
2023-04-05T12:50:16.358Z,8.53
2023-04-05T12:51:16.339Z,8.55
2023-04-05T12:53:21.098Z,8.49
2023-04-05T12:54:20.313Z,8.55
2023-04-05T12:56:13.441Z,8.49
2023-04-05T12:57:13.443Z,8.51
2023-04-05T12:59:17.565Z,8.52
2023-04-05T13:00:17.463Z,8.53
2023-04-05T13:02:21.539Z,8.49
2023-04-05T13:03:21.705Z,8.56
2023-04-05T13:05:25.693Z,8.55
2023-04-05T13:06:25.402Z,8.55
2023-04-05T13:08:18.386Z,8.64
2023-04-05T13:09:18.312Z,8.66
2023-04-05T13:11:23.934Z,8.71
2023-04-05T13:12:22.306Z,8.70
2023-04-05T13:14:26.309Z,8.76
2023-04-05T13:15:26.297Z,8.74
2023-04-05T13:17:20.308Z,8.71
2023-04-05T13:18:19.959Z,8.88
2023-04-05T13:19:19.910Z,8.85
2023-04-05T13:20:19.901Z,8.88
2023-04-05T13:21:19.925Z,8.94
2023-04-05T13:22:19.912Z,8.91
2023-04-05T13:23:19.873Z,8.94
2023-04-05T13:24:19.879Z,8.92
2023-04-05T13:25:19.869Z,8.97
2023-04-05T13:26:19.879Z,8.94
2023-04-05T13:27:19.848Z,8.99
2023-04-05T13:28:19.847Z,8.94
2023-04-05T13:29:19.855Z,8.95
2023-04-05T13:30:19.848Z,8.92
2023-04-05T13:31:19.853Z,8.92
2023-04-05T13:32:19.843Z,8.95
2023-04-05T13:33:19.838Z,8.97
2023-04-05T13:34:19.842Z,8.99
2023-04-05T13:35:19.855Z,9.02
2023-04-05T13:36:19.854Z,9.02
2023-04-05T13:37:19.809Z,9.02
2023-04-05T13:38:19.812Z,9.04
2023-04-05T13:39:19.809Z,8.97
2023-04-05T13:40:19.807Z,9.08
2023-04-05T13:41:19.790Z,9.03
2023-04-05T13:42:19.798Z,9.10
2023-04-05T13:43:19.788Z,9.13
2023-04-05T13:44:19.801Z,9.14
2023-04-05T13:45:19.797Z,9.06